createdAt,value
2023-04-13T00:01:11.623Z,9.25
2023-04-13T00:03:39.712Z,7.00
2023-04-13T00:06:22.905Z,7.00
2023-04-13T00:09:14.230Z,5.50
2023-04-13T00:12:01.424Z,5.50
2023-04-13T00:14:48.316Z,8.50
2023-04-13T00:17:36.000Z,13.25
2023-04-13T00:20:22.673Z,10.00
2023-04-13T00:23:09.326Z,13.25
2023-04-13T00:25:36.436Z,14.50
2023-04-13T00:28:03.966Z,11.00
2023-04-13T00:30:30.932Z,17.50
2023-04-13T00:32:57.849Z,19.75
2023-04-13T00:35:28.120Z,26.00
2023-04-13T00:37:55.028Z,5.00
2023-04-13T00:40:22.022Z,21.33
2023-04-13T00:42:50.891Z,22.00
2023-04-13T00:45:18.467Z,22.00
2023-04-13T00:47:47.057Z,19.00
2023-04-13T00:50:14.779Z,10.25
2023-04-13T00:52:43.033Z,5.00
2023-04-13T00:55:10.116Z,15.00
2023-04-13T00:57:41.077Z,13.00
2023-04-13T01:00:09.985Z,16.00
2023-04-13T01:02:42.314Z,19.00
2023-04-13T01:05:12.830Z,21.00
2023-04-13T01:08:43.933Z,18.00
2023-04-13T01:11:56.094Z,11.25
2023-04-13T01:15:01.696Z,10.75
2023-04-13T01:17:56.430Z,18.00
2023-04-13T01:20:51.761Z,17.00
2023-04-13T01:23:55.648Z,16.33
2023-04-13T01:26:22.963Z,17.00
2023-04-13T01:28:51.530Z,10.75
2023-04-13T01:31:20.119Z,10.00
2023-04-13T01:33:48.137Z,9.00
2023-04-13T01:36:16.178Z,3.00
2023-04-13T01:38:43.748Z,3.00
2023-04-13T01:41:10.687Z,17.00
2023-04-13T01:43:37.949Z,18.33
2023-04-13T01:46:11.768Z,13.00
2023-04-13T01:48:52.241Z,26.00
2023-04-13T01:51:23.206Z,31.67
2023-04-13T01:53:54.824Z,30.67
2023-04-13T01:56:23.381Z,30.33
2023-04-13T01:58:56.646Z,25.67
2023-04-13T02:01:24.292Z,21.00
2023-04-13T02:03:52.081Z,17.00
2023-04-13T02:06:19.609Z,13.00
2023-04-13T02:08:46.536Z,9.25
2023-04-13T02:11:13.584Z,10.75
2023-04-13T02:13:40.495Z,18.33
2023-04-13T02:16:07.837Z,19.00
2023-04-13T02:18:35.420Z,21.00
2023-04-13T02:21:09.729Z,19.67
2023-04-13T02:23:38.057Z,26.00
2023-04-13T02:26:07.828Z,23.67
2023-04-13T02:28:34.812Z,26.33
2023-04-13T02:31:03.839Z,21.67
2023-04-13T02:33:31.880Z,15.00
2023-04-13T02:35:59.814Z,14.25
2023-04-13T02:38:28.525Z,9.75
2023-04-13T02:40:56.705Z,11.25
2023-04-13T02:43:23.667Z,12.25
2023-04-13T02:45:50.657Z,12.75
2023-04-13T02:48:17.564Z,9.00
2023-04-13T02:50:44.457Z,11.25
2023-04-13T02:53:11.349Z,8.00
2023-04-13T02:55:39.291Z,12.00
2023-04-13T02:58:06.845Z,7.50
2023-04-13T03:00:33.771Z,23.00
2023-04-13T03:03:03.568Z,24.67
2023-04-13T03:05:33.824Z,26.33
2023-04-13T03:08:00.949Z,29.00
2023-04-13T03:10:27.951Z,28.00
2023-04-13T03:12:55.106Z,25.33
2023-04-13T03:15:22.120Z,21.33
2023-04-13T03:17:49.127Z,31.00
2023-04-13T03:20:17.166Z,29.00
2023-04-13T03:22:45.499Z,26.00
2023-04-13T03:25:12.790Z,23.00
2023-04-13T03:27:39.802Z,37.00
2023-04-13T03:30:07.867Z,33.00
2023-04-13T03:32:35.000Z,31.00
2023-04-13T03:35:02.153Z,25.67
2023-04-13T03:37:32.669Z,21.67
2023-04-13T03:39:59.630Z,15.00
2023-04-13T03:42:26.748Z,16.25
2023-04-13T03:44:53.707Z,14.75
2023-04-13T03:47:21.061Z,10.00
2023-04-13T03:49:47.994Z,11.00
2023-04-13T03:52:14.989Z,10.50
2023-04-13T03:54:41.908Z,6.00
2023-04-13T03:57:09.039Z,9.25
2023-04-13T03:59:36.000Z,9.50
2023-04-13T04:02:03.175Z,25.00
2023-04-13T04:04:30.300Z,27.67
2023-04-13T04:06:58.214Z,25.00
2023-04-13T04:09:25.766Z,25.33
2023-04-13T04:11:52.658Z,28.67
2023-04-13T04:14:20.659Z,20.00
2023-04-13T04:16:47.620Z,21.00
2023-04-13T04:19:14.666Z,15.25
2023-04-13T04:21:44.907Z,13.50
2023-04-13T04:24:12.724Z,28.00
2023-04-13T04:26:40.459Z,25.00
2023-04-13T04:29:09.113Z,23.33
2023-04-13T04:31:43.666Z,26.33
2023-04-13T04:34:11.883Z,26.00
2023-04-13T04:36:41.927Z,25.00
2023-04-13T04:39:10.144Z,25.33
2023-04-13T04:41:38.035Z,27.67
2023-04-13T04:44:07.970Z,27.67
2023-04-13T04:46:38.841Z,25.67
2023-04-13T04:49:05.847Z,22.00
2023-04-13T04:51:33.693Z,23.00
2023-04-13T04:54:02.365Z,21.25
2023-04-13T04:56:29.547Z,15.00
2023-04-13T04:58:57.381Z,10.75
2023-04-13T05:01:26.806Z,15.00
2023-04-13T05:03:54.219Z,25.00
2023-04-13T05:06:21.476Z,23.25
2023-04-13T05:08:48.442Z,19.75
2023-04-13T05:11:15.547Z,22.00
2023-04-13T05:13:42.433Z,20.25
2023-04-13T05:16:10.901Z,18.25
2023-04-13T05:18:48.461Z,20.50
2023-04-13T05:21:16.266Z,17.00
2023-04-13T05:23:43.765Z,18.00
2023-04-13T05:26:12.440Z,15.50
2023-04-13T05:28:39.934Z,14.00
2023-04-13T05:31:09.118Z,15.25
2023-04-13T05:33:36.193Z,13.75
2023-04-13T05:36:03.707Z,16.00
2023-04-13T05:38:31.003Z,21.75
2023-04-13T05:40:58.954Z,21.00
2023-04-13T05:43:26.947Z,16.75
2023-04-13T05:45:54.033Z,21.00
2023-04-13T05:48:21.700Z,20.75
2023-04-13T05:50:48.596Z,24.00
2023-04-13T05:53:15.472Z,22.75
2023-04-13T05:55:43.355Z,15.50
2023-04-13T05:58:11.215Z,19.75
2023-04-13T06:00:39.014Z,27.25
2023-04-13T06:03:07.661Z,21.50
2023-04-13T06:05:36.820Z,27.00
2023-04-13T06:08:04.175Z,22.00
2023-04-13T06:10:31.615Z,22.25
2023-04-13T06:12:59.113Z,23.00
2023-04-13T06:15:26.373Z,20.25
2023-04-13T06:17:56.240Z,26.25
2023-04-13T06:20:23.376Z,25.00
2023-04-13T06:22:50.276Z,22.25
2023-04-13T06:25:17.265Z,23.00
2023-04-13T06:27:44.422Z,23.25
2023-04-13T06:30:12.378Z,19.50
2023-04-13T06:32:39.519Z,17.75
2023-04-13T06:35:07.067Z,17.00
2023-04-13T06:37:37.173Z,11.75
2023-04-13T06:40:13.057Z,10.00
2023-04-13T06:42:41.600Z,12.00
2023-04-13T06:45:12.537Z,11.00
2023-04-13T06:47:43.571Z,7.50
2023-04-13T06:50:14.228Z,9.00
2023-04-13T06:52:46.067Z,8.00
2023-04-13T06:55:14.299Z,8.00
2023-04-13T06:57:41.888Z,9.25
2023-04-13T07:00:25.903Z,5.25
2023-04-13T07:02:58.466Z,8.75
2023-04-13T07:05:25.696Z,5.00
2023-04-13T07:07:52.549Z,6.00
2023-04-13T07:10:19.560Z,7.00
2023-04-13T07:12:46.704Z,6.75
2023-04-13T07:15:13.669Z,10.00
2023-04-13T07:17:40.769Z,12.00
2023-04-13T07:20:08.424Z,10.50
2023-04-13T07:22:35.765Z,10.25
2023-04-13T07:25:02.923Z,6.00
2023-04-13T07:27:29.838Z,7.00
2023-04-13T07:29:57.029Z,6.00
2023-04-13T07:32:30.328Z,6.00
2023-04-13T07:35:02.329Z,4.00
2023-04-13T07:37:29.993Z,5.00
2023-04-13T07:39:57.000Z,3.00
2023-04-13T07:42:25.480Z,2.50
2023-04-13T07:44:56.293Z,2.75
2023-04-13T07:47:23.366Z,3.00
2023-04-13T07:49:50.290Z,5.00
2023-04-13T07:52:17.353Z,4.75
2023-04-13T07:54:44.304Z,3.00
2023-04-13T07:57:11.218Z,3.50
2023-04-13T07:59:38.134Z,2.75
2023-04-13T08:02:05.884Z,4.00
2023-04-13T08:04:33.866Z,2.00
2023-04-13T08:07:05.043Z,2.00
2023-04-13T08:09:42.554Z,2.75
2023-04-13T08:12:10.239Z,2.00
2023-04-13T08:14:37.570Z,1.00
2023-04-13T08:17:06.357Z,0.67
2023-04-13T08:19:34.212Z,2.00
2023-04-13T08:22:01.344Z,3.00
2023-04-13T08:24:29.132Z,2.00
2023-04-13T08:26:58.387Z,1.00
2023-04-13T08:29:26.585Z,3.00
2023-04-13T08:31:53.763Z,4.00
2023-04-13T08:34:20.763Z,2.00
2023-04-13T08:36:48.005Z,3.00
2023-04-13T08:39:15.160Z,2.00
2023-04-13T08:41:47.377Z,2.33
2023-04-13T08:44:15.279Z,1.33
2023-04-13T08:46:45.178Z,2.00
2023-04-13T08:49:12.855Z,3.00
2023-04-13T08:51:42.237Z,2.00
2023-04-13T08:54:09.151Z,3.00
2023-04-13T08:56:45.860Z,1.33
2023-04-13T08:59:15.752Z,2.00
2023-04-13T09:01:45.548Z,4.00
2023-04-13T09:04:17.857Z,2.33
2023-04-13T09:06:48.065Z,2.00
2023-04-13T09:09:15.680Z,3.00
2023-04-13T09:11:43.721Z,2.00
2023-04-13T09:14:10.809Z,2.00
2023-04-13T09:16:42.379Z,4.00
2023-04-13T09:19:10.403Z,4.67
2023-04-13T09:21:41.512Z,4.00
2023-04-13T09:24:10.015Z,3.00
2023-04-13T09:26:50.383Z,2.00
2023-04-13T09:29:19.395Z,5.33
2023-04-13T09:31:47.778Z,3.33
2023-04-13T09:34:26.065Z,7.00
2023-04-13T09:36:54.911Z,4.00
2023-04-13T09:39:28.595Z,6.33
2023-04-13T09:41:56.299Z,4.00
2023-04-13T09:44:31.285Z,4.00
2023-04-13T09:46:59.415Z,4.00
2023-04-13T09:49:27.323Z,4.00
2023-04-13T09:51:54.975Z,4.00
2023-04-13T09:54:23.002Z,9.25
2023-04-13T09:56:54.850Z,7.00
2023-04-13T09:59:25.736Z,6.33
2023-04-13T10:01:54.124Z,5.00
2023-04-13T10:04:21.752Z,7.00
2023-04-13T10:06:49.192Z,4.67
2023-04-13T10:09:16.314Z,5.00
2023-04-13T10:11:50.113Z,8.00
2023-04-13T10:14:22.425Z,6.00
2023-04-13T10:16:55.628Z,4.00
2023-04-13T10:19:28.396Z,5.33
2023-04-13T10:21:56.672Z,2.00
2023-04-13T10:24:24.250Z,8.33
2023-04-13T10:26:55.535Z,6.33
2023-04-13T10:29:30.531Z,4.00
2023-04-13T10:32:03.557Z,4.67
2023-04-13T10:34:32.401Z,6.00
2023-04-13T10:37:04.021Z,4.33
2023-04-13T10:39:33.699Z,4.00
2023-04-13T10:42:05.011Z,4.00
2023-04-13T10:44:45.596Z,8.67
2023-04-13T10:47:21.158Z,10.00
2023-04-13T10:49:49.492Z,9.25
2023-04-13T10:52:17.057Z,10.00
2023-04-13T10:54:45.308Z,10.00
2023-04-13T10:57:12.869Z,9.33
2023-04-13T10:59:55.492Z,7.00
2023-04-13T11:02:32.442Z,8.00
2023-04-13T11:05:01.405Z,7.00
2023-04-13T11:07:28.978Z,6.67
2023-04-13T11:12:28.721Z,3.33
2023-04-13T11:14:55.648Z,2.00
2023-04-13T11:17:22.873Z,2.00
2023-04-13T11:19:51.636Z,2.00
2023-04-13T11:22:20.236Z,3.00
2023-04-13T11:24:51.199Z,3.67
2023-04-13T11:27:24.496Z,4.00
2023-04-13T11:30:05.422Z,3.00
2023-04-13T11:32:34.524Z,2.00
2023-04-13T11:35:15.305Z,1.67
2023-04-13T11:37:47.184Z,3.33
2023-04-13T11:40:17.528Z,1.33
2023-04-13T11:42:46.524Z,1.00
2023-04-13T11:45:19.075Z,2.00
2023-04-13T11:47:48.339Z,2.00
2023-04-13T11:50:16.773Z,2.00
2023-04-13T11:52:44.893Z,1.00
2023-04-13T11:55:22.508Z,3.00
2023-04-13T11:57:52.871Z,0.00
2023-04-13T12:00:26.537Z,3.00
2023-04-13T12:05:28.086Z,3.67
2023-04-13T12:07:57.444Z,4.00
2023-04-13T12:10:38.122Z,6.00
2023-04-13T12:16:02.271Z,4.00
2023-04-13T12:18:37.447Z,1.00
2023-04-13T12:21:06.123Z,3.33
2023-04-13T12:23:33.239Z,4.00
2023-04-13T12:26:41.239Z,3.00
2023-04-13T12:28:59.412Z,3.33
2023-04-13T12:31:33.300Z,2.67
2023-04-13T12:34:00.548Z,2.00
2023-04-13T12:36:31.697Z,2.00
2023-04-13T12:38:59.701Z,2.00
2023-04-13T12:41:27.352Z,1.00
2023-04-13T12:43:54.444Z,0.00
2023-04-13T12:46:21.458Z,0.67
2023-04-13T12:48:48.936Z,1.00
2023-04-13T12:51:15.932Z,0.00
2023-04-13T12:53:42.857Z,2.00
2023-04-13T12:56:09.951Z,1.00
2023-04-13T12:58:36.901Z,1.00
2023-04-13T13:01:04.352Z,1.00
2023-04-13T13:03:31.410Z,1.00
2023-04-13T13:05:58.306Z,1.00
2023-04-13T13:08:25.205Z,0.33
2023-04-13T13:10:52.193Z,4.00
2023-04-13T13:13:19.161Z,5.00
2023-04-13T13:15:46.155Z,4.67
2023-04-13T13:18:14.041Z,3.00
2023-04-13T13:20:44.490Z,1.00
2023-04-13T13:23:12.650Z,6.00
2023-04-13T13:25:42.397Z,6.00
2023-04-13T13:28:15.270Z,7.25
2023-04-13T13:30:43.291Z,5.00
2023-04-13T13:33:10.204Z,7.00
2023-04-13T13:35:37.098Z,5.00
2023-04-13T13:38:04.206Z,8.75
2023-04-13T13:40:31.352Z,4.67
2023-04-13T13:42:58.261Z,4.00
2023-04-13T13:45:25.246Z,3.00
2023-04-13T13:47:53.847Z,4.33
2023-04-13T13:50:24.128Z,7.25
2023-04-13T13:53:02.984Z,9.75
2023-04-13T13:55:31.874Z,8.75
2023-04-13T13:58:00.492Z,10.00
2023-04-13T14:00:27.502Z,8.25
2023-04-13T14:02:54.550Z,9.75
2023-04-13T14:05:22.396Z,7.25
2023-04-13T14:07:49.620Z,7.50
2023-04-13T14:10:16.908Z,7.25
2023-04-13T14:12:49.635Z,7.25
2023-04-13T14:15:17.721Z,7.00
2023-04-13T14:17:48.396Z,4.00
2023-04-13T14:20:22.785Z,5.75
2023-04-13T14:22:49.791Z,9.00
2023-04-13T14:25:16.685Z,7.50
2023-04-13T14:27:43.672Z,8.00
2023-04-13T14:30:10.823Z,13.00
2023-04-13T14:32:37.757Z,12.00
2023-04-13T14:35:04.991Z,14.00
2023-04-13T14:37:31.940Z,12.75
2023-04-13T14:39:58.853Z,12.00
2023-04-13T14:42:29.804Z,13.25
2023-04-13T14:44:56.962Z,8.00
2023-04-13T14:47:23.907Z,7.25
2023-04-13T14:49:51.007Z,8.00
2023-04-13T14:52:18.369Z,9.25
2023-04-13T14:54:45.265Z,7.00
2023-04-13T14:57:12.164Z,8.50
2023-04-13T14:59:39.187Z,9.25
2023-04-13T15:02:06.868Z,13.50
2023-04-13T15:04:33.836Z,13.00
2023-04-13T15:07:00.793Z,9.00
2023-04-13T15:09:27.645Z,10.25
2023-04-13T15:11:54.550Z,12.25
2023-04-13T15:14:21.673Z,10.00
2023-04-13T15:16:48.609Z,6.00
2023-04-13T15:19:15.739Z,8.75
2023-04-13T15:21:42.664Z,14.00
2023-04-13T15:24:11.878Z,11.00
2023-04-13T15:26:41.285Z,11.25
2023-04-13T15:29:09.006Z,17.75
2023-04-13T15:31:37.484Z,21.50
2023-04-13T15:34:06.457Z,19.25
2023-04-13T15:36:33.445Z,20.00
2023-04-13T15:39:00.809Z,20.25
2023-04-13T15:41:27.926Z,21.25
2023-04-13T15:43:56.589Z,19.75
2023-04-13T15:46:23.551Z,20.25
2023-04-13T15:48:50.676Z,21.00
2023-04-13T15:51:17.611Z,23.75
2023-04-13T15:53:44.553Z,22.00
2023-04-13T15:56:11.543Z,19.75
2023-04-13T15:58:38.634Z,22.00
2023-04-13T16:01:10.213Z,20.00
2023-04-13T16:03:37.846Z,21.25
2023-04-13T16:06:04.981Z,25.00
2023-04-13T16:08:31.855Z,26.00
2023-04-13T16:10:59.131Z,24.75
2023-04-13T16:13:34.782Z,26.00
2023-04-13T16:16:14.828Z,28.00
2023-04-13T16:18:42.201Z,24.50
2023-04-13T16:21:11.077Z,26.00
2023-04-13T16:23:38.464Z,25.00
2023-04-13T16:26:06.506Z,26.00
2023-04-13T16:28:34.723Z,21.50
2023-04-13T16:31:01.805Z,25.25
2023-04-13T16:33:30.050Z,25.25
2023-04-13T16:35:56.890Z,25.75
2023-04-13T16:38:23.742Z,27.00
2023-04-13T16:40:50.702Z,25.25
2023-04-13T16:43:17.646Z,23.50
2023-04-13T16:45:44.596Z,24.25
2023-04-13T16:48:11.564Z,23.75
2023-04-13T16:50:38.570Z,19.50
2023-04-13T16:53:05.438Z,25.75
2023-04-13T16:55:32.406Z,23.50
2023-04-13T16:57:59.307Z,18.00
2023-04-13T17:00:26.835Z,27.00
2023-04-13T17:02:53.851Z,22.00
2023-04-13T17:05:20.893Z,25.50
2023-04-13T17:07:48.377Z,27.25
2023-04-13T17:10:15.539Z,26.00
2023-04-13T17:12:42.514Z,23.00
2023-04-13T17:15:10.173Z,19.25
2023-04-13T17:17:38.527Z,24.00
2023-04-13T17:20:06.645Z,25.75
2023-04-13T17:22:33.623Z,21.25
2023-04-13T17:25:01.228Z,28.50
2023-04-13T17:27:28.182Z,25.00
2023-04-13T17:29:55.130Z,10.75
2023-04-13T17:32:22.542Z,29.50
2023-04-13T17:34:50.341Z,25.00
2023-04-13T17:37:18.093Z,28.25
2023-04-13T17:39:51.009Z,26.00
2023-04-13T17:42:18.745Z,27.25
2023-04-13T17:44:45.848Z,27.00
2023-04-13T17:47:12.820Z,30.25
2023-04-13T17:49:41.040Z,30.00
2023-04-13T17:52:07.935Z,31.25
2023-04-13T17:54:34.890Z,26.25
2023-04-13T17:57:02.389Z,0.00
2023-04-13T17:59:29.350Z,32.00
2023-04-13T18:01:57.961Z,30.00
2023-04-13T18:04:25.043Z,26.75
2023-04-13T18:06:52.168Z,26.75
2023-04-13T18:09:19.026Z,25.00
2023-04-13T18:11:45.887Z,24.25
2023-04-13T18:14:15.376Z,24.25
2023-04-13T18:16:42.976Z,23.50
2023-04-13T18:19:10.063Z,31.00
2023-04-13T18:21:37.369Z,26.75
2023-04-13T18:24:04.740Z,30.00
2023-04-13T18:26:31.852Z,30.50
2023-04-13T18:28:58.834Z,27.25
2023-04-13T18:31:25.860Z,27.00
2023-04-13T18:33:52.851Z,28.00
2023-04-13T18:36:19.775Z,24.75
2023-04-13T18:38:46.818Z,25.00
2023-04-13T18:41:41.040Z,23.00
2023-04-13T18:44:09.391Z,24.25
2023-04-13T18:46:36.398Z,25.00
2023-04-13T18:49:03.392Z,25.00
2023-04-13T18:51:32.188Z,21.00
2023-04-13T18:53:59.602Z,17.00
2023-04-13T18:56:26.706Z,17.50
2023-04-13T18:58:53.681Z,25.50
2023-04-13T19:01:20.948Z,25.00
2023-04-13T19:03:49.948Z,23.00
2023-04-13T19:06:17.295Z,25.25
2023-04-13T19:08:44.278Z,28.00
2023-04-13T19:11:11.620Z,26.00
2023-04-13T19:13:38.578Z,26.00
2023-04-13T19:16:06.609Z,27.25
2023-04-13T19:18:34.675Z,24.25
2023-04-13T19:21:01.638Z,22.00
2023-04-13T19:23:29.271Z,26.00
2023-04-13T19:25:56.196Z,25.00
2023-04-13T19:28:23.120Z,13.25
2023-04-13T19:30:50.035Z,16.00
2023-04-13T19:33:16.933Z,17.50
2023-04-13T19:35:44.027Z,22.25
2023-04-13T19:38:11.892Z,21.50
2023-04-13T19:40:38.824Z,18.75
2023-04-13T19:43:06.053Z,17.00
2023-04-13T19:45:33.034Z,16.50
2023-04-13T19:48:00.056Z,11.75
2023-04-13T19:50:27.099Z,11.50
2023-04-13T19:52:53.969Z,15.00
2023-04-13T19:55:21.170Z,12.25
2023-04-13T19:57:48.740Z,15.00
2023-04-13T20:00:20.615Z,14.00
2023-04-13T20:02:50.121Z,14.75
2023-04-13T20:05:18.889Z,18.00
2023-04-13T20:07:45.946Z,16.75
2023-04-13T20:10:13.081Z,21.50
2023-04-13T20:12:40.108Z,20.25
2023-04-13T20:15:07.850Z,15.00
2023-04-13T20:17:34.792Z,20.00
2023-04-13T20:20:01.932Z,15.00
2023-04-13T20:22:29.330Z,15.25
2023-04-13T20:24:56.285Z,19.75
2023-04-13T20:27:23.269Z,24.00
2023-04-13T20:29:51.492Z,25.00
2023-04-13T20:32:18.539Z,22.75
2023-04-13T20:34:45.481Z,18.75
2023-04-13T20:37:14.622Z,28.00
2023-04-13T20:39:50.712Z,28.00
2023-04-13T20:42:18.607Z,27.25
2023-04-13T20:44:46.688Z,27.00
2023-04-13T20:47:14.258Z,31.00
2023-04-13T20:49:44.017Z,30.75
2023-04-13T20:52:14.239Z,29.00
2023-04-13T20:54:41.741Z,25.00
2023-04-13T20:57:09.498Z,22.25
2023-04-13T20:59:37.579Z,19.00
2023-04-13T21:02:05.670Z,25.50
2023-04-13T21:04:32.771Z,25.75
2023-04-13T21:07:02.492Z,23.00
2023-04-13T21:09:30.853Z,23.00
2023-04-13T21:11:58.244Z,24.50
2023-04-13T21:14:25.993Z,19.75
2023-04-13T21:16:53.401Z,17.00
2023-04-13T21:19:20.842Z,14.00
2023-04-13T21:21:48.040Z,10.00
2023-04-13T21:24:15.098Z,8.75
2023-04-13T21:26:41.967Z,10.50
2023-04-13T21:29:09.310Z,8.00
2023-04-13T21:31:36.275Z,6.25
2023-04-13T21:34:04.148Z,11.00
2023-04-13T21:39:02.967Z,10.75
2023-04-13T21:41:30.047Z,8.00
2023-04-13T21:43:57.050Z,11.00
2023-04-13T21:46:25.097Z,11.00
2023-04-13T21:48:52.451Z,9.00
2023-04-13T21:51:19.325Z,5.00
2023-04-13T21:53:46.294Z,9.50
2023-04-13T21:56:13.176Z,7.50
2023-04-13T21:58:41.487Z,10.00
2023-04-13T22:01:08.746Z,6.50
2023-04-13T22:03:40.154Z,7.50
2023-04-13T22:06:09.230Z,4.25
2023-04-13T22:08:36.296Z,9.00
2023-04-13T22:11:03.461Z,8.50
2023-04-13T22:13:30.797Z,8.25
2023-04-13T22:15:57.925Z,8.00
2023-04-13T22:18:25.252Z,8.50
2023-04-13T22:20:52.251Z,9.75
2023-04-13T22:23:19.285Z,13.00
2023-04-13T22:25:53.704Z,10.00
2023-04-13T22:28:20.720Z,8.75
2023-04-13T22:30:47.696Z,7.50
2023-04-13T22:33:15.454Z,10.00
2023-04-13T22:35:42.352Z,9.00
2023-04-13T22:38:09.261Z,8.75
2023-04-13T22:40:39.437Z,6.25
2023-04-13T22:43:06.719Z,7.00
2023-04-13T22:45:33.734Z,9.50
2023-04-13T22:48:00.800Z,10.50
2023-04-13T22:50:27.794Z,9.50
2023-04-13T22:52:54.909Z,8.50
2023-04-13T22:55:22.000Z,8.75
2023-04-13T22:57:49.027Z,7.00
2023-04-13T23:00:16.144Z,2.25
2023-04-13T23:02:43.314Z,4.00
2023-04-13T23:05:10.399Z,4.50
2023-04-13T23:07:37.379Z,5.00
2023-04-13T23:10:04.960Z,4.75
2023-04-13T23:12:31.892Z,5.25
2023-04-13T23:14:58.808Z,2.25
2023-04-13T23:17:25.982Z,7.00
2023-04-13T23:19:56.383Z,4.00
2023-04-13T23:22:23.468Z,7.00
2023-04-13T23:24:50.445Z,4.00
2023-04-13T23:27:18.503Z,4.00
2023-04-13T23:29:49.780Z,8.25
2023-04-13T23:32:16.719Z,8.25
2023-04-13T23:34:43.993Z,7.50
2023-04-13T23:37:11.068Z,4.75
2023-04-13T23:39:38.266Z,4.50
2023-04-13T23:42:05.312Z,4.00
2023-04-13T23:44:32.282Z,4.00
2023-04-13T23:46:59.515Z,2.00
2023-04-13T23:49:26.746Z,2.00
2023-04-13T23:51:53.725Z,3.00
2023-04-13T23:54:20.887Z,7.00
2023-04-13T23:56:47.756Z,13.00
2023-04-13T23:59:14.670Z,12.00
